Portada
METAR-TAF:

METAR-TAF

Aeropuertos :

Aeropuerto Internacional de Kunming-Changshui

Kunming, China

latitud: 25-01N, longitud: 102-41E, altitud: 1892 m

Observación

El informe se hizo hace 55 minutos, a las 09:00 UTC
Viento 10 kt del sur-suroeste
Temperatura 15°C
Humedad 77%
Presión 1025 hPa
Visibilidad 10 km o más
sin nubes por debajo de 1500 m y sin presencia de cumulonimbus.

METAR: ZPPP 140900Z 21005MPS CAVOK 15/11 Q1025 NOSIG

Hora: 17:55 (09:55 UTC)

Pronóstico

El informe se hizo hace 8 horas y 43 minutos, a las 01:12 UTC
Pronóstico válido del 14 a las 06 UTC al 15 a las 06 UTC
Viento 10 kt del suroeste
Visibilidad 10 km o más
Nubes dispersas a una altura de 2000 ft
Cielo nuboso a una altura de 3300 ft

TAF: ZPPP 140112Z 1406/1506 23005MPS 9999 SCT020 BKN033 TX18/1408Z TN09/1423Z

Observaciones y pronósticos meteorológicos de más de 4000 aeropuertos (mensajes METAR y TAF).

Los puntos amarillos y rojos representan las estaciones disponibles.

Ponga el ratón en el punto deseado para ver el nombre de la estación.

Haga clic para ver las observaciones y los pronósticos meteorológicos.

Para cambiar el mapa : haga clic en los botones verdes con una cruz de color negro para hacer un zoom, en el botón verde con un guión para alejar o en las flechas verdes para mapas adyacentes.


METAR-TAF: